sensor_id;sensor_type;location;lat;lon;timestamp;P1;durP1;ratioP1;P2;durP2;ratioP2
4601;SDS011;2313;48.552;9.370;2023-02-22T00:00:58;5.80;;;4.10;;
4601;SDS011;2313;48.552;9.370;2023-02-22T00:03:31;6.50;;;3.30;;
4601;SDS011;2313;48.552;9.370;2023-02-22T00:05:58;6.70;;;4.00;;
4601;SDS011;2313;48.552;9.370;2023-02-22T00:08:32;5.30;;;3.43;;
4601;SDS011;2313;48.552;9.370;2023-02-22T00:11:05;4.53;;;3.30;;
4601;SDS011;2313;48.552;9.370;2023-02-22T00:13:32;5.23;;;3.83;;
4601;SDS011;2313;48.552;9.370;2023-02-22T00:15:59;4.33;;;3.57;;
4601;SDS011;2313;48.552;9.370;2023-02-22T00:18:25;4.10;;;3.70;;
4601;SDS011;2313;48.552;9.370;2023-02-22T00:20:53;8.90;;;3.90;;
4601;SDS011;2313;48.552;9.370;2023-02-22T00:23:24;5.13;;;3.90;;
4601;SDS011;2313;48.552;9.370;2023-02-22T00:25:52;5.03;;;4.00;;
4601;SDS011;2313;48.552;9.370;2023-02-22T00:28:19;6.70;;;4.30;;
4601;SDS011;2313;48.552;9.370;2023-02-22T00:30:45;8.93;;;4.50;;
4601;SDS011;2313;48.552;9.370;2023-02-22T00:33:12;7.40;;;3.70;;
4601;SDS011;2313;48.552;9.370;2023-02-22T00:35:39;9.00;;;4.50;;
4601;SDS011;2313;48.552;9.370;2023-02-22T00:38:05;3.55;;;3.25;;
4601;SDS011;2313;48.552;9.370;2023-02-22T00:40:32;6.70;;;3.90;;
4601;SDS011;2313;48.552;9.370;2023-02-22T00:43:00;7.27;;;4.00;;
4601;SDS011;2313;48.552;9.370;2023-02-22T00:45:27;6.80;;;3.83;;
4601;SDS011;2313;48.552;9.370;2023-02-22T00:47:54;4.63;;;3.30;;
4601;SDS011;2313;48.552;9.370;2023-02-22T00:50:21;6.93;;;3.97;;
4601;SDS011;2313;48.552;9.370;2023-02-22T00:52:48;5.37;;;3.50;;
4601;SDS011;2313;48.552;9.370;2023-02-22T00:55:24;5.40;;;3.50;;
4601;SDS011;2313;48.552;9.370;2023-02-22T00:57:52;4.10;;;3.50;;
4601;SDS011;2313;48.552;9.370;2023-02-22T01:00:20;9.50;;;3.53;;
4601;SDS011;2313;48.552;9.370;2023-02-22T01:02:48;8.73;;;3.17;;
4601;SDS011;2313;48.552;9.370;2023-02-22T01:05:15;10.43;;;5.13;;
4601;SDS011;2313;48.552;9.370;2023-02-22T01:07:42;4.68;;;3.67;;
4601;SDS011;2313;48.552;9.370;2023-02-22T01:10:08;6.10;;;3.13;;
4601;SDS011;2313;48.552;9.370;2023-02-22T01:12:34;5.37;;;3.70;;
4601;SDS011;2313;48.552;9.370;2023-02-22T01:15:01;5.00;;;3.80;;
4601;SDS011;2313;48.552;9.370;2023-02-22T01:17:28;3.40;;;3.10;;
4601;SDS011;2313;48.552;9.370;2023-02-22T01:19:54;6.93;;;4.20;;
4601;SDS011;2313;48.552;9.370;2023-02-22T01:22:20;5.23;;;3.67;;
4601;SDS011;2313;48.552;9.370;2023-02-22T01:24:47;5.00;;;3.90;;
4601;SDS011;2313;48.552;9.370;2023-02-22T01:27:13;6.40;;;3.67;;
4601;SDS011;2313;48.552;9.370;2023-02-22T01:29:39;3.73;;;3.43;;
4601;SDS011;2313;48.552;9.370;2023-02-22T01:32:05;8.20;;;4.10;;
4601;SDS011;2313;48.552;9.370;2023-02-22T01:34:31;9.20;;;3.57;;
4601;SDS011;2313;48.552;9.370;2023-02-22T01:36:57;6.70;;;3.65;;
4601;SDS011;2313;48.552;9.370;2023-02-22T01:39:23;3.80;;;3.23;;
4601;SDS011;2313;48.552;9.370;2023-02-22T01:41:49;4.40;;;2.97;;
4601;SDS011;2313;48.552;9.370;2023-02-22T01:44:28;4.60;;;3.00;;
4601;SDS011;2313;48.552;9.370;2023-02-22T01:46:54;5.23;;;3.73;;
4601;SDS011;2313;48.552;9.370;2023-02-22T01:49:23;4.80;;;3.10;;
4601;SDS011;2313;48.552;9.370;2023-02-22T01:51:52;5.27;;;3.53;;
4601;SDS011;2313;48.552;9.370;2023-02-22T01:54:26;8.03;;;3.03;;
4601;SDS011;2313;48.552;9.370;2023-02-22T01:57:11;7.60;;;4.93;;
4601;SDS011;2313;48.552;9.370;2023-02-22T01:59:54;5.37;;;3.70;;
4601;SDS011;2313;48.552;9.370;2023-02-22T02:02:24;3.03;;;2.80;;
4601;SDS011;2313;48.552;9.370;2023-02-22T02:04:54;6.03;;;3.63;;
4601;SDS011;2313;48.552;9.370;2023-02-22T02:07:21;5.93;;;3.55;;
4601;SDS011;2313;48.552;9.370;2023-02-22T02:10:02;9.10;;;3.40;;
4601;SDS011;2313;48.552;9.370;2023-02-22T02:12:32;4.70;;;3.17;;
4601;SDS011;2313;48.552;9.370;2023-02-22T02:18:05;5.07;;;3.30;;
4601;SDS011;2313;48.552;9.370;2023-02-22T02:34:09;10.07;;;3.97;;
4601;SDS011;2313;48.552;9.370;2023-02-22T02:36:59;12.23;;;4.37;;
4601;SDS011;2313;48.552;9.370;2023-02-22T02:42:24;5.80;;;3.95;;
4601;SDS011;2313;48.552;9.370;2023-02-22T02:45:12;11.10;;;4.37;;
4601;SDS011;2313;48.552;9.370;2023-02-22T02:47:44;5.53;;;3.60;;
4601;SDS011;2313;48.552;9.370;2023-02-22T02:50:17;6.20;;;3.30;;
4601;SDS011;2313;48.552;9.370;2023-02-22T02:52:47;4.40;;;3.57;;
4601;SDS011;2313;48.552;9.370;2023-02-22T02:55:15;3.50;;;3.20;;
4601;SDS011;2313;48.552;9.370;2023-02-22T02:57:42;4.43;;;3.38;;
4601;SDS011;2313;48.552;9.370;2023-02-22T03:00:08;4.37;;;2.97;;
4601;SDS011;2313;48.552;9.370;2023-02-22T03:10:52;3.07;;;2.77;;
4601;SDS011;2313;48.552;9.370;2023-02-22T03:13:26;3.50;;;3.07;;
4601;SDS011;2313;48.552;9.370;2023-02-22T03:16:14;3.97;;;2.80;;
4601;SDS011;2313;48.552;9.370;2023-02-22T03:19:03;4.90;;;2.97;;
4601;SDS011;2313;48.552;9.370;2023-02-22T03:27:13;4.03;;;2.90;;
4601;SDS011;2313;48.552;9.370;2023-02-22T03:29:47;6.70;;;3.30;;
4601;SDS011;2313;48.552;9.370;2023-02-22T03:32:20;5.68;;;3.22;;
4601;SDS011;2313;48.552;9.370;2023-02-22T03:34:50;3.33;;;2.55;;
4601;SDS011;2313;48.552;9.370;2023-02-22T03:37:28;3.63;;;3.07;;
4601;SDS011;2313;48.552;9.370;2023-02-22T03:39:59;4.90;;;3.30;;
4601;SDS011;2313;48.552;9.370;2023-02-22T03:42:39;4.73;;;2.90;;
4601;SDS011;2313;48.552;9.370;2023-02-22T03:45:12;4.00;;;3.10;;
4601;SDS011;2313;48.552;9.370;2023-02-22T03:47:42;3.37;;;3.07;;
4601;SDS011;2313;48.552;9.370;2023-02-22T03:50:19;3.90;;;3.00;;
4601;SDS011;2313;48.552;9.370;2023-02-22T03:52:50;3.90;;;2.53;;
4601;SDS011;2313;48.552;9.370;2023-02-22T03:55:16;4.87;;;2.73;;
4601;SDS011;2313;48.552;9.370;2023-02-22T03:58:01;3.10;;;2.80;;
4601;SDS011;2313;48.552;9.370;2023-02-22T04:00:34;3.80;;;3.40;;
4601;SDS011;2313;48.552;9.370;2023-02-22T04:03:00;5.30;;;3.50;;
4601;SDS011;2313;48.552;9.370;2023-02-22T04:05:26;10.53;;;3.63;;
4601;SDS011;2313;48.552;9.370;2023-02-22T04:07:53;7.00;;;3.10;;
4601;SDS011;2313;48.552;9.370;2023-02-22T04:10:19;4.95;;;3.17;;
4601;SDS011;2313;48.552;9.370;2023-02-22T04:12:46;6.05;;;2.80;;
4601;SDS011;2313;48.552;9.370;2023-02-22T04:15:14;6.82;;;3.22;;
4601;SDS011;2313;48.552;9.370;2023-02-22T04:17:44;5.90;;;3.30;;
4601;SDS011;2313;48.552;9.370;2023-02-22T04:20:09;3.50;;;3.20;;
4601;SDS011;2313;48.552;9.370;2023-02-22T04:22:40;3.80;;;3.40;;
4601;SDS011;2313;48.552;9.370;2023-02-22T04:25:06;6.27;;;3.37;;
4601;SDS011;2313;48.552;9.370;2023-02-22T04:27:31;4.77;;;3.60;;
4601;SDS011;2313;48.552;9.370;2023-02-22T04:29:58;6.32;;;3.35;;
4601;SDS011;2313;48.552;9.370;2023-02-22T04:32:24;5.27;;;3.77;;
4601;SDS011;2313;48.552;9.370;2023-02-22T04:34:49;5.37;;;4.00;;
4601;SDS011;2313;48.552;9.370;2023-02-22T04:37:15;4.80;;;3.77;;
4601;SDS011;2313;48.552;9.370;2023-02-22T04:39:40;12.40;;;4.97;;
4601;SDS011;2313;48.552;9.370;2023-02-22T04:42:06;10.80;;;4.27;;
4601;SDS011;2313;48.552;9.370;2023-02-22T04:44:31;8.60;;;4.50;;
4601;SDS011;2313;48.552;9.370;2023-02-22T04:46:57;5.47;;;3.97;;
4601;SDS011;2313;48.552;9.370;2023-02-22T04:49:23;7.87;;;3.97;;
4601;SDS011;2313;48.552;9.370;2023-02-22T04:51:48;8.30;;;4.33;;
4601;SDS011;2313;48.552;9.370;2023-02-22T04:54:14;11.63;;;5.40;;
4601;SDS011;2313;48.552;9.370;2023-02-22T04:56:41;7.82;;;5.05;;
4601;SDS011;2313;48.552;9.370;2023-02-22T04:59:08;5.50;;;4.38;;
4601;SDS011;2313;48.552;9.370;2023-02-22T05:01:34;6.70;;;4.77;;
4601;SDS011;2313;48.552;9.370;2023-02-22T05:04:01;4.85;;;3.88;;
4601;SDS011;2313;48.552;9.370;2023-02-22T05:06:28;6.47;;;4.40;;
4601;SDS011;2313;48.552;9.370;2023-02-22T05:08:54;5.60;;;4.17;;
4601;SDS011;2313;48.552;9.370;2023-02-22T05:11:19;7.17;;;5.40;;
4601;SDS011;2313;48.552;9.370;2023-02-22T05:13:46;6.45;;;5.75;;
4601;SDS011;2313;48.552;9.370;2023-02-22T05:16:12;8.80;;;5.30;;
4601;SDS011;2313;48.552;9.370;2023-02-22T05:18:37;5.40;;;4.13;;
4601;SDS011;2313;48.552;9.370;2023-02-22T05:21:03;5.10;;;4.00;;
4601;SDS011;2313;48.552;9.370;2023-02-22T05:23:29;6.07;;;4.10;;
4601;SDS011;2313;48.552;9.370;2023-02-22T05:25:54;4.80;;;3.80;;
4601;SDS011;2313;48.552;9.370;2023-02-22T05:28:20;8.20;;;3.40;;
4601;SDS011;2313;48.552;9.370;2023-02-22T05:30:46;6.40;;;4.00;;
4601;SDS011;2313;48.552;9.370;2023-02-22T05:33:11;4.17;;;3.30;;
4601;SDS011;2313;48.552;9.370;2023-02-22T05:35:37;4.73;;;3.67;;
4601;SDS011;2313;48.552;9.370;2023-02-22T05:38:03;6.60;;;3.47;;
4601;SDS011;2313;48.552;9.370;2023-02-22T05:40:29;7.90;;;4.07;;
4601;SDS011;2313;48.552;9.370;2023-02-22T05:42:56;8.50;;;4.33;;
4601;SDS011;2313;48.552;9.370;2023-02-22T05:45:23;4.97;;;4.10;;
4601;SDS011;2313;48.552;9.370;2023-02-22T05:47:50;7.18;;;4.70;;
4601;SDS011;2313;48.552;9.370;2023-02-22T05:50:17;5.30;;;4.53;;
4601;SDS011;2313;48.552;9.370;2023-02-22T05:52:43;3.85;;;3.45;;
4601;SDS011;2313;48.552;9.370;2023-02-22T05:55:10;6.15;;;4.00;;
4601;SDS011;2313;48.552;9.370;2023-02-22T05:57:39;6.43;;;4.78;;
4601;SDS011;2313;48.552;9.370;2023-02-22T06:00:05;10.20;;;4.03;;
4601;SDS011;2313;48.552;9.370;2023-02-22T06:02:33;11.68;;;5.57;;
4601;SDS011;2313;48.552;9.370;2023-02-22T06:04:58;7.40;;;5.40;;
4601;SDS011;2313;48.552;9.370;2023-02-22T06:07:24;6.53;;;5.13;;
4601;SDS011;2313;48.552;9.370;2023-02-22T06:09:51;5.70;;;4.00;;
4601;SDS011;2313;48.552;9.370;2023-02-22T06:12:17;8.70;;;5.47;;
4601;SDS011;2313;48.552;9.370;2023-02-22T06:14:43;8.60;;;5.10;;
4601;SDS011;2313;48.552;9.370;2023-02-22T06:17:10;8.50;;;5.00;;
4601;SDS011;2313;48.552;9.370;2023-02-22T06:19:36;9.50;;;4.83;;
4601;SDS011;2313;48.552;9.370;2023-02-22T06:22:03;5.82;;;4.68;;
4601;SDS011;2313;48.552;9.370;2023-02-22T06:24:29;8.30;;;4.77;;
4601;SDS011;2313;48.552;9.370;2023-02-22T06:26:55;6.10;;;4.83;;
4601;SDS011;2313;48.552;9.370;2023-02-22T06:29:22;7.57;;;5.43;;
4601;SDS011;2313;48.552;9.370;2023-02-22T06:31:49;6.72;;;4.75;;
4601;SDS011;2313;48.552;9.370;2023-02-22T06:34:15;7.20;;;5.00;;
4601;SDS011;2313;48.552;9.370;2023-02-22T06:36:41;11.67;;;5.10;;
4601;SDS011;2313;48.552;9.370;2023-02-22T06:39:07;9.80;;;5.30;;
4601;SDS011;2313;48.552;9.370;2023-02-22T06:41:36;5.15;;;3.85;;
4601;SDS011;2313;48.552;9.370;2023-02-22T06:44:02;8.88;;;5.32;;
4601;SDS011;2313;48.552;9.370;2023-02-22T06:46:29;4.70;;;3.92;;
4601;SDS011;2313;48.552;9.370;2023-02-22T06:48:55;7.20;;;5.40;;
4601;SDS011;2313;48.552;9.370;2023-02-22T06:51:21;8.60;;;4.50;;
4601;SDS011;2313;48.552;9.370;2023-02-22T06:53:47;10.47;;;5.20;;
4601;SDS011;2313;48.552;9.370;2023-02-22T06:56:12;8.23;;;5.60;;
4601;SDS011;2313;48.552;9.370;2023-02-22T06:58:38;7.33;;;4.50;;
4601;SDS011;2313;48.552;9.370;2023-02-22T07:01:04;7.93;;;6.03;;
4601;SDS011;2313;48.552;9.370;2023-02-22T07:03:32;8.20;;;6.15;;
4601;SDS011;2313;48.552;9.370;2023-02-22T07:05:58;7.57;;;4.97;;
4601;SDS011;2313;48.552;9.370;2023-02-22T07:08:24;9.67;;;6.10;;
4601;SDS011;2313;48.552;9.370;2023-02-22T07:10:49;8.47;;;6.33;;
4601;SDS011;2313;48.552;9.370;2023-02-22T07:13:16;7.35;;;5.32;;
4601;SDS011;2313;48.552;9.370;2023-02-22T07:15:42;6.87;;;5.73;;
4601;SDS011;2313;48.552;9.370;2023-02-22T07:18:07;16.20;;;5.80;;
4601;SDS011;2313;48.552;9.370;2023-02-22T07:20:33;5.87;;;5.07;;
4601;SDS011;2313;48.552;9.370;2023-02-22T07:22:59;8.30;;;5.20;;
4601;SDS011;2313;48.552;9.370;2023-02-22T07:25:25;6.70;;;5.07;;
4601;SDS011;2313;48.552;9.370;2023-02-22T07:27:50;11.40;;;5.73;;
4601;SDS011;2313;48.552;9.370;2023-02-22T07:30:18;7.97;;;5.30;;
4601;SDS011;2313;48.552;9.370;2023-02-22T07:32:49;8.00;;;6.10;;
4601;SDS011;2313;48.552;9.370;2023-02-22T07:35:19;10.37;;;6.20;;
4601;SDS011;2313;48.552;9.370;2023-02-22T07:37:47;10.00;;;7.70;;
4601;SDS011;2313;48.552;9.370;2023-02-22T07:40:12;11.10;;;8.20;;
4601;SDS011;2313;48.552;9.370;2023-02-22T07:42:51;9.90;;;6.93;;
4601;SDS011;2313;48.552;9.370;2023-02-22T07:45:19;10.30;;;6.93;;
4601;SDS011;2313;48.552;9.370;2023-02-22T07:47:46;12.70;;;6.53;;
4601;SDS011;2313;48.552;9.370;2023-02-22T07:50:13;22.50;;;9.20;;
4601;SDS011;2313;48.552;9.370;2023-02-22T07:52:39;12.53;;;8.57;;
4601;SDS011;2313;48.552;9.370;2023-02-22T07:55:09;18.63;;;12.67;;
4601;SDS011;2313;48.552;9.370;2023-02-22T07:57:35;13.00;;;8.43;;
4601;SDS011;2313;48.552;9.370;2023-02-22T08:00:00;11.00;;;7.57;;
4601;SDS011;2313;48.552;9.370;2023-02-22T08:02:26;9.40;;;7.73;;
4601;SDS011;2313;48.552;9.370;2023-02-22T08:04:51;11.23;;;8.23;;
4601;SDS011;2313;48.552;9.370;2023-02-22T08:07:17;13.57;;;9.00;;
4601;SDS011;2313;48.552;9.370;2023-02-22T08:09:42;10.90;;;8.20;;
4601;SDS011;2313;48.552;9.370;2023-02-22T08:12:08;13.60;;;9.00;;
4601;SDS011;2313;48.552;9.370;2023-02-22T08:14:33;9.73;;;7.53;;
4601;SDS011;2313;48.552;9.370;2023-02-22T08:16:59;12.67;;;9.10;;
4601;SDS011;2313;48.552;9.370;2023-02-22T08:19:25;19.17;;;9.00;;
4601;SDS011;2313;48.552;9.370;2023-02-22T08:21:50;21.80;;;8.47;;
4601;SDS011;2313;48.552;9.370;2023-02-22T08:24:16;10.83;;;7.73;;
4601;SDS011;2313;48.552;9.370;2023-02-22T08:26:45;9.20;;;7.60;;
4601;SDS011;2313;48.552;9.370;2023-02-22T08:29:11;11.40;;;7.93;;
4601;SDS011;2313;48.552;9.370;2023-02-22T08:31:38;11.20;;;6.77;;
4601;SDS011;2313;48.552;9.370;2023-02-22T08:34:04;10.97;;;6.93;;
4601;SDS011;2313;48.552;9.370;2023-02-22T08:36:29;10.90;;;8.37;;
4601;SDS011;2313;48.552;9.370;2023-02-22T08:38:57;9.53;;;6.80;;
4601;SDS011;2313;48.552;9.370;2023-02-22T08:41:23;8.80;;;6.60;;
4601;SDS011;2313;48.552;9.370;2023-02-22T08:43:48;9.20;;;7.40;;
4601;SDS011;2313;48.552;9.370;2023-02-22T08:46:17;10.33;;;7.30;;
4601;SDS011;2313;48.552;9.370;2023-02-22T08:48:49;10.50;;;6.93;;
4601;SDS011;2313;48.552;9.370;2023-02-22T08:51:16;12.43;;;6.43;;
4601;SDS011;2313;48.552;9.370;2023-02-22T08:53:41;8.43;;;5.90;;
4601;SDS011;2313;48.552;9.370;2023-02-22T08:56:08;10.00;;;5.67;;
4601;SDS011;2313;48.552;9.370;2023-02-22T08:58:33;17.37;;;10.33;;
4601;SDS011;2313;48.552;9.370;2023-02-22T09:00:59;12.23;;;7.60;;
4601;SDS011;2313;48.552;9.370;2023-02-22T09:03:25;9.20;;;6.90;;
4601;SDS011;2313;48.552;9.370;2023-02-22T09:05:50;10.23;;;6.20;;
4601;SDS011;2313;48.552;9.370;2023-02-22T09:08:16;9.20;;;5.70;;
4601;SDS011;2313;48.552;9.370;2023-02-22T09:10:42;10.00;;;6.50;;
4601;SDS011;2313;48.552;9.370;2023-02-22T09:13:09;14.13;;;7.73;;
4601;SDS011;2313;48.552;9.370;2023-02-22T09:15:35;11.33;;;6.43;;
4601;SDS011;2313;48.552;9.370;2023-02-22T09:18:02;8.10;;;5.80;;
4601;SDS011;2313;48.552;9.370;2023-02-22T09:20:29;7.07;;;6.07;;
4601;SDS011;2313;48.552;9.370;2023-02-22T09:22:54;7.90;;;5.70;;
4601;SDS011;2313;48.552;9.370;2023-02-22T09:25:20;10.23;;;6.47;;
4601;SDS011;2313;48.552;9.370;2023-02-22T09:27:48;10.40;;;5.50;;
4601;SDS011;2313;48.552;9.370;2023-02-22T09:30:25;8.53;;;5.80;;
4601;SDS011;2313;48.552;9.370;2023-02-22T09:32:57;8.23;;;5.97;;
4601;SDS011;2313;48.552;9.370;2023-02-22T09:35:28;9.60;;;6.07;;
4601;SDS011;2313;48.552;9.370;2023-02-22T09:37:54;11.80;;;6.30;;
4601;SDS011;2313;48.552;9.370;2023-02-22T09:40:22;11.20;;;6.63;;
4601;SDS011;2313;48.552;9.370;2023-02-22T09:48:29;8.60;;;6.20;;
4601;SDS011;2313;48.552;9.370;2023-02-22T09:50:58;9.67;;;5.03;;
4601;SDS011;2313;48.552;9.370;2023-02-22T09:53:29;7.13;;;5.40;;
4601;SDS011;2313;48.552;9.370;2023-02-22T09:56:03;9.40;;;5.10;;
4601;SDS011;2313;48.552;9.370;2023-02-22T09:58:38;11.03;;;5.80;;
4601;SDS011;2313;48.552;9.370;2023-02-22T10:04:02;9.40;;;5.00;;
4601;SDS011;2313;48.552;9.370;2023-02-22T10:06:43;6.83;;;5.10;;
4601;SDS011;2313;48.552;9.370;2023-02-22T10:09:39;6.70;;;5.03;;
4601;SDS011;2313;48.552;9.370;2023-02-22T10:12:12;7.53;;;5.43;;
4601;SDS011;2313;48.552;9.370;2023-02-22T10:14:50;13.80;;;5.97;;
4601;SDS011;2313;48.552;9.370;2023-02-22T10:19:58;6.93;;;5.80;;
4601;SDS011;2313;48.552;9.370;2023-02-22T10:25:17;7.10;;;5.27;;
4601;SDS011;2313;48.552;9.370;2023-02-22T10:28:00;8.77;;;5.50;;
4601;SDS011;2313;48.552;9.370;2023-02-22T10:30:38;5.90;;;4.40;;
4601;SDS011;2313;48.552;9.370;2023-02-22T10:33:20;8.33;;;5.23;;
4601;SDS011;2313;48.552;9.370;2023-02-22T10:36:05;9.13;;;5.70;;
4601;SDS011;2313;48.552;9.370;2023-02-22T10:38:40;8.00;;;5.77;;
4601;SDS011;2313;48.552;9.370;2023-02-22T10:41:22;8.07;;;5.07;;
4601;SDS011;2313;48.552;9.370;2023-02-22T10:44:00;6.47;;;4.90;;
4601;SDS011;2313;48.552;9.370;2023-02-22T10:46:27;9.27;;;5.47;;
4601;SDS011;2313;48.552;9.370;2023-02-22T10:48:59;6.70;;;4.67;;
4601;SDS011;2313;48.552;9.370;2023-02-22T10:51:28;7.63;;;5.80;;
4601;SDS011;2313;48.552;9.370;2023-02-22T10:54:00;6.63;;;5.40;;
4601;SDS011;2313;48.552;9.370;2023-02-22T10:56:46;7.40;;;5.17;;
4601;SDS011;2313;48.552;9.370;2023-02-22T10:59:33;7.80;;;4.40;;
4601;SDS011;2313;48.552;9.370;2023-02-22T11:02:08;7.33;;;4.70;;
4601;SDS011;2313;48.552;9.370;2023-02-22T11:04:46;9.40;;;5.10;;
4601;SDS011;2313;48.552;9.370;2023-02-22T11:09:56;9.00;;;5.10;;
4601;SDS011;2313;48.552;9.370;2023-02-22T11:14:54;6.20;;;4.73;;
4601;SDS011;2313;48.552;9.370;2023-02-22T11:17:25;8.43;;;5.37;;
4601;SDS011;2313;48.552;9.370;2023-02-22T11:19:55;7.00;;;5.07;;
4601;SDS011;2313;48.552;9.370;2023-02-22T11:22:35;8.83;;;4.93;;
4601;SDS011;2313;48.552;9.370;2023-02-22T11:25:05;34.63;;;5.20;;
4601;SDS011;2313;48.552;9.370;2023-02-22T11:27:33;5.03;;;4.10;;
4601;SDS011;2313;48.552;9.370;2023-02-22T11:35:57;6.93;;;4.70;;
4601;SDS011;2313;48.552;9.370;2023-02-22T11:38:25;7.70;;;4.80;;
4601;SDS011;2313;48.552;9.370;2023-02-22T11:41:04;7.40;;;5.20;;
4601;SDS011;2313;48.552;9.370;2023-02-22T11:43:30;6.40;;;4.63;;
4601;SDS011;2313;48.552;9.370;2023-02-22T11:46:03;10.40;;;6.17;;
4601;SDS011;2313;48.552;9.370;2023-02-22T11:48:33;5.63;;;4.40;;
4601;SDS011;2313;48.552;9.370;2023-02-22T11:53:56;12.63;;;5.30;;
4601;SDS011;2313;48.552;9.370;2023-02-22T11:56:52;16.40;;;5.20;;
4601;SDS011;2313;48.552;9.370;2023-02-22T11:59:44;9.27;;;5.63;;
4601;SDS011;2313;48.552;9.370;2023-02-22T12:05:21;7.40;;;5.30;;
4601;SDS011;2313;48.552;9.370;2023-02-22T12:15:48;8.10;;;5.73;;
4601;SDS011;2313;48.552;9.370;2023-02-22T12:18:26;9.33;;;6.33;;
4601;SDS011;2313;48.552;9.370;2023-02-22T12:21:15;11.67;;;5.70;;
4601;SDS011;2313;48.552;9.370;2023-02-22T12:23:45;16.90;;;5.90;;
4601;SDS011;2313;48.552;9.370;2023-02-22T12:28:52;12.10;;;6.17;;
4601;SDS011;2313;48.552;9.370;2023-02-22T12:31:36;10.93;;;5.40;;
4601;SDS011;2313;48.552;9.370;2023-02-22T12:34:32;15.90;;;6.90;;
4601;SDS011;2313;48.552;9.370;2023-02-22T12:42:40;11.83;;;6.57;;
4601;SDS011;2313;48.552;9.370;2023-02-22T12:56:56;10.97;;;7.00;;
4601;SDS011;2313;48.552;9.370;2023-02-22T12:59:44;9.70;;;7.27;;
4601;SDS011;2313;48.552;9.370;2023-02-22T13:02:19;12.63;;;7.30;;
4601;SDS011;2313;48.552;9.370;2023-02-22T13:04:50;8.60;;;6.50;;
4601;SDS011;2313;48.552;9.370;2023-02-22T13:13:31;9.97;;;7.40;;
4601;SDS011;2313;48.552;9.370;2023-02-22T13:21:45;14.90;;;8.60;;
4601;SDS011;2313;48.552;9.370;2023-02-22T13:24:20;14.10;;;7.20;;
4601;SDS011;2313;48.552;9.370;2023-02-22T13:27:11;14.57;;;7.37;;
4601;SDS011;2313;48.552;9.370;2023-02-22T13:29:46;11.37;;;7.23;;
4601;SDS011;2313;48.552;9.370;2023-02-22T13:38:01;14.40;;;8.20;;
4601;SDS011;2313;48.552;9.370;2023-02-22T13:46:24;18.00;;;8.00;;
4601;SDS011;2313;48.552;9.370;2023-02-22T13:49:23;15.07;;;7.33;;
4601;SDS011;2313;48.552;9.370;2023-02-22T13:52:22;10.77;;;6.20;;
4601;SDS011;2313;48.552;9.370;2023-02-22T13:54:57;10.57;;;6.90;;
4601;SDS011;2313;48.552;9.370;2023-02-22T13:57:28;14.90;;;7.33;;
4601;SDS011;2313;48.552;9.370;2023-02-22T14:02:56;13.23;;;8.57;;
4601;SDS011;2313;48.552;9.370;2023-02-22T14:05:34;20.37;;;9.20;;
4601;SDS011;2313;48.552;9.370;2023-02-22T14:10:58;14.83;;;8.10;;
4601;SDS011;2313;48.552;9.370;2023-02-22T14:13:25;11.90;;;7.43;;
4601;SDS011;2313;48.552;9.370;2023-02-22T14:18:28;12.00;;;7.30;;
4601;SDS011;2313;48.552;9.370;2023-02-22T14:21:04;15.47;;;8.30;;
4601;SDS011;2313;48.552;9.370;2023-02-22T14:23:33;12.70;;;8.10;;
4601;SDS011;2313;48.552;9.370;2023-02-22T14:26:12;16.93;;;8.33;;
4601;SDS011;2313;48.552;9.370;2023-02-22T14:29:29;14.70;;;8.53;;
4601;SDS011;2313;48.552;9.370;2023-02-22T14:31:33;13.50;;;8.03;;
4601;SDS011;2313;48.552;9.370;2023-02-22T14:34:02;12.47;;;8.27;;
4601;SDS011;2313;48.552;9.370;2023-02-22T14:36:36;13.57;;;7.50;;
4601;SDS011;2313;48.552;9.370;2023-02-22T14:41:35;13.90;;;7.80;;
4601;SDS011;2313;48.552;9.370;2023-02-22T14:44:03;19.00;;;8.10;;
4601;SDS011;2313;48.552;9.370;2023-02-22T14:46:33;16.00;;;8.03;;
4601;SDS011;2313;48.552;9.370;2023-02-22T14:49:04;16.93;;;8.33;;
4601;SDS011;2313;48.552;9.370;2023-02-22T14:51:47;16.73;;;8.77;;
4601;SDS011;2313;48.552;9.370;2023-02-22T14:54:24;21.63;;;8.93;;
4601;SDS011;2313;48.552;9.370;2023-02-22T14:57:19;13.47;;;8.03;;
4601;SDS011;2313;48.552;9.370;2023-02-22T15:00:11;22.47;;;8.83;;
4601;SDS011;2313;48.552;9.370;2023-02-22T15:02:44;18.27;;;9.30;;
4601;SDS011;2313;48.552;9.370;2023-02-22T15:05:15;20.50;;;9.43;;
4601;SDS011;2313;48.552;9.370;2023-02-22T15:07:52;19.83;;;10.53;;
4601;SDS011;2313;48.552;9.370;2023-02-22T15:10:27;17.50;;;10.00;;
4601;SDS011;2313;48.552;9.370;2023-02-22T15:12:59;13.20;;;9.83;;
4601;SDS011;2313;48.552;9.370;2023-02-22T15:15:36;16.20;;;10.70;;
4601;SDS011;2313;48.552;9.370;2023-02-22T15:18:17;17.20;;;10.33;;
4601;SDS011;2313;48.552;9.370;2023-02-22T15:20:52;20.20;;;10.83;;
4601;SDS011;2313;48.552;9.370;2023-02-22T15:23:25;19.20;;;10.23;;
4601;SDS011;2313;48.552;9.370;2023-02-22T15:25:57;26.23;;;10.93;;
4601;SDS011;2313;48.552;9.370;2023-02-22T15:28:23;15.27;;;10.37;;
4601;SDS011;2313;48.552;9.370;2023-02-22T15:31:12;14.43;;;10.60;;
4601;SDS011;2313;48.552;9.370;2023-02-22T15:33:38;17.40;;;10.87;;
4601;SDS011;2313;48.552;9.370;2023-02-22T15:36:04;16.23;;;10.83;;
4601;SDS011;2313;48.552;9.370;2023-02-22T15:38:37;16.37;;;10.13;;
4601;SDS011;2313;48.552;9.370;2023-02-22T15:41:04;14.60;;;10.70;;
4601;SDS011;2313;48.552;9.370;2023-02-22T15:43:32;14.57;;;10.00;;
4601;SDS011;2313;48.552;9.370;2023-02-22T15:45:58;15.83;;;10.03;;
4601;SDS011;2313;48.552;9.370;2023-02-22T15:48:25;17.03;;;9.70;;
4601;SDS011;2313;48.552;9.370;2023-02-22T15:50:59;22.93;;;10.70;;
4601;SDS011;2313;48.552;9.370;2023-02-22T15:53:52;15.80;;;10.93;;
4601;SDS011;2313;48.552;9.370;2023-02-22T15:56:28;14.47;;;10.80;;
4601;SDS011;2313;48.552;9.370;2023-02-22T15:58:59;25.50;;;10.57;;
4601;SDS011;2313;48.552;9.370;2023-02-22T16:01:57;21.57;;;11.20;;
4601;SDS011;2313;48.552;9.370;2023-02-22T16:04:25;17.00;;;11.63;;
4601;SDS011;2313;48.552;9.370;2023-02-22T16:06:54;23.93;;;12.30;;
4601;SDS011;2313;48.552;9.370;2023-02-22T16:09:44;27.70;;;16.17;;
4601;SDS011;2313;48.552;9.370;2023-02-22T16:14:44;51.50;;;28.07;;
4601;SDS011;2313;48.552;9.370;2023-02-22T16:22:42;18.77;;;11.53;;
4601;SDS011;2313;48.552;9.370;2023-02-22T16:27:59;19.47;;;11.90;;
4601;SDS011;2313;48.552;9.370;2023-02-22T16:33:02;23.70;;;9.70;;
4601;SDS011;2313;48.552;9.370;2023-02-22T16:35:37;20.17;;;11.13;;
4601;SDS011;2313;48.552;9.370;2023-02-22T16:38:04;22.30;;;10.57;;
4601;SDS011;2313;48.552;9.370;2023-02-22T16:43:06;17.13;;;10.20;;
4601;SDS011;2313;48.552;9.370;2023-02-22T16:45:36;13.13;;;9.80;;
4601;SDS011;2313;48.552;9.370;2023-02-22T16:48:10;15.47;;;10.40;;
4601;SDS011;2313;48.552;9.370;2023-02-22T16:50:46;19.47;;;10.60;;
4601;SDS011;2313;48.552;9.370;2023-02-22T16:53:12;15.20;;;9.53;;
4601;SDS011;2313;48.552;9.370;2023-02-22T16:55:42;18.90;;;9.60;;
4601;SDS011;2313;48.552;9.370;2023-02-22T16:58:08;20.40;;;10.67;;
4601;SDS011;2313;48.552;9.370;2023-02-22T17:00:36;20.63;;;10.27;;
4601;SDS011;2313;48.552;9.370;2023-02-22T17:03:02;17.83;;;9.70;;
4601;SDS011;2313;48.552;9.370;2023-02-22T17:05:32;25.00;;;9.53;;
4601;SDS011;2313;48.552;9.370;2023-02-22T17:08:05;18.50;;;10.30;;
4601;SDS011;2313;48.552;9.370;2023-02-22T17:10:31;23.73;;;8.90;;
4601;SDS011;2313;48.552;9.370;2023-02-22T17:12:58;21.90;;;8.37;;
4601;SDS011;2313;48.552;9.370;2023-02-22T17:15:25;18.80;;;8.73;;
4601;SDS011;2313;48.552;9.370;2023-02-22T17:17:59;17.03;;;11.47;;
4601;SDS011;2313;48.552;9.370;2023-02-22T17:20:28;16.97;;;9.93;;
4601;SDS011;2313;48.552;9.370;2023-02-22T17:22:58;16.90;;;10.13;;
4601;SDS011;2313;48.552;9.370;2023-02-22T17:25:30;19.37;;;9.63;;
4601;SDS011;2313;48.552;9.370;2023-02-22T17:27:59;23.80;;;10.87;;
4601;SDS011;2313;48.552;9.370;2023-02-22T17:30:25;17.50;;;9.60;;
4601;SDS011;2313;48.552;9.370;2023-02-22T17:32:51;15.07;;;9.77;;
4601;SDS011;2313;48.552;9.370;2023-02-22T17:35:19;17.93;;;9.90;;
4601;SDS011;2313;48.552;9.370;2023-02-22T17:37:50;13.70;;;9.07;;
4601;SDS011;2313;48.552;9.370;2023-02-22T17:40:16;13.17;;;8.87;;
4601;SDS011;2313;48.552;9.370;2023-02-22T17:42:42;16.73;;;9.17;;
4601;SDS011;2313;48.552;9.370;2023-02-22T17:45:09;12.90;;;8.80;;
4601;SDS011;2313;48.552;9.370;2023-02-22T17:47:38;16.30;;;9.13;;
4601;SDS011;2313;48.552;9.370;2023-02-22T17:50:05;13.20;;;9.07;;